OSOK1: Oswego hwy 160

Data processed at Thu May 23 2019 23:50


All information presented herein is the property of the government of the United States of America and may be revised or deleted at any time without prior notice.
Dissemination of this information without the expressed written consent of the Public Affairs Office, Tulsa District U.S. Army Corps of Engineers is strictly prohibited.
These data are gathered electronically and, as presented, have not undergone any form of quality control. These data are not guaranteed to be valid or correct.
Go to home page.
Go to station list.
Go to home page.

Upstream stations:

Downstream station:
Previous Day
Next Day
Current Day
    
SHEF ID:       OSOK1     Oswego hwy 160
STATION TYPE:  

               PRECIP     STAGE  RIV-FLOW   VOLTAGE  BAT-LOAD
                   in        ft       cfs      volt      volt
              Ccp-Rev   Ccp-Rev   Ccp-Rev   Ccp-Rev   Ccp-Rev
(US/Central)
05/23 00:00      0.07     33.53     46210     12.65     12.49
05/23 01:00      0.00     33.66     47828     12.65     12.49
05/23 02:00      0.03     33.66     47828     12.57     12.41
05/23 03:00      0.00     33.66     47828     12.57     12.41
05/23 04:00      0.70     33.59     46951     12.57     12.41
05/23 05:00      1.02     33.66     47828     12.57     12.41
05/23 06:00      0.06     33.75     48976     12.57     12.41
05/23 07:00      0.03     33.71     48463     12.57     12.41
05/23 08:00      0.06     33.85     50202     12.57     12.41
05/23 09:00      0.05     33.86     50318     12.57     12.41
05/23 10:00      0.02     33.88     50551     12.57     12.49
05/23 11:00      0.00     33.88     50551     12.73     12.57
05/23 12:00      0.00     33.87     50434     13.44     13.21
05/23 13:00      0.00     33.98     51730     13.53     13.21
05/23 14:00      0.00     33.97     51611     13.44     13.29
05/23 15:00      0.00     33.85     50202     13.37     13.21
05/23 16:00      0.00     33.93     51138     13.21     13.05
05/23 17:00      0.00     34.01     52088     13.29     13.05
05/23 18:00      0.00     34.01     52088     13.44     13.05
05/23 19:00      0.00     33.96     51493     12.97     12.89
05/23 20:00      0.00     33.97     51611     12.73     12.65
05/23 21:00      0.00     33.94     51256     12.65     12.57
05/23 22:00      0.00     33.90     50785     12.65     12.57
05/23 23:00      0.00     33.85     50202     12.65     12.49